METAR Data
IDs: Format: Raw Decoded Include TAF

Data at: 0138 UTC 14 May 2021

KJVY 140115Z AUTO 00000KT 10SM CLR 11/06 A3029 RMK AO2 T01080063 TSNO
KJVY 140055Z AUTO 00000KT 10SM CLR 12/06 A3029 RMK AO2 T01220058 TSNO
KJVY 140035Z AUTO 00000KT 10SM CLR 13/08 A3029 RMK AO2 T01320076 TSNO
KJVY 140015Z AUTO 00000KT 10SM CLR 16/05 A3028 RMK AO2 T01600050 TSNO
KJVY 132355Z AUTO 00000KT 10SM CLR 18/00 A3028 RMK AO2 T01760002 10203 20169 TSNO
KJVY 132335Z AUTO 00000KT 10SM CLR 18/05 A3028 RMK AO2 T01750053 TSNO
KJVY 132315Z AUTO 00000KT 10SM CLR 18/01 A3028 RMK AO2 T01750005 TSNO
KJVY 132255Z AUTO 00000KT 10SM CLR 17/02 A3028 RMK AO2 T01700022 TSNO
KJVY 132235Z AUTO 05003KT 10SM CLR 18/00 A3029 RMK AO2 T01780000 TSNO
KJVY 132215Z AUTO 00000KT 10SM CLR 19/M01 A3029 RMK AO2 T01931009 TSNO
KJVY 132155Z AUTO 01003KT 10SM CLR 18/02 A3029 RMK AO2 T01750020 TSNO
KJVY 132135Z AUTO 06005KT 10SM CLR 20/00 A3029 RMK AO2 T01961001 TSNO
KJVY 132115Z AUTO 00000KT 10SM CLR 18/00 A3030 RMK AO2 T01801001 TSNO
KJVY 132055Z AUTO 07005KT 10SM CLR 20/00 A3030 RMK AO2 T01981003 TSNO
KJVY 132035Z AUTO 00000KT 10SM CLR 18/M01 A3031 RMK AO2 T01841006 TSNO
KJVY 132015Z AUTO 35003KT 10SM CLR 20/00 A3031 RMK AO2 T02011001 TSNO
KJVY 131955Z AUTO 01003KT 10SM CLR 19/M01 A3032 RMK AO2 T01871010 TSNO
KJVY 131935Z AUTO 02007KT 10SM CLR 20/00 A3032 RMK AO2 T02000000 TSNO
KJVY 131915Z AUTO 09003KT 10SM CLR 19/M01 A3033 RMK AO2 T01921015 TSNO
KJVY 131855Z AUTO 35004KT 10SM CLR 20/00 A3034 RMK AO2 T01951005 TSNO
KJVY 131835Z AUTO 35003KT 10SM CLR 19/00 A3034 RMK AO2 T01881005 TSNO
KJVY 131815Z AUTO 02005KT 10SM CLR 19/00 A3035 RMK AO2 T01910000 TSNO
KJVY 131755Z AUTO 03003KT 10SM CLR 19/00 A3036 RMK AO2 T01891003 10189 20081 TSNO
KJVY 131735Z AUTO 04004KT 10SM CLR 18/01 A3036 RMK AO2 T01830009 TSNO
KJVY 131715Z AUTO 00000KT 10SM CLR 18/01 A3037 RMK AO2 T01830006 TSNO
KJVY 131655Z AUTO 06006KT 10SM CLR 18/01 A3037 RMK AO2 T01760014 TSNO
KJVY 131635Z AUTO 36004KT 10SM CLR 18/01 A3038 RMK AO2 T01800009 TSNO
KJVY 131615Z AUTO 36004KT 10SM CLR 18/01 A3039 RMK AO2 T01780011 TSNO
KJVY 131555Z AUTO 04008KT 010V080 10SM CLR 18/00 A3039 RMK AO2 T01750003 TSNO
KJVY 131535Z AUTO 36003KT 10SM CLR 17/02 A3039 RMK AO2 T01660022 TSNO
KJVY 131515Z AUTO 00000KT 10SM CLR 17/04 A3039 RMK AO2 T01650035 TSNO
KJVY 131455Z AUTO 00000KT 10SM CLR 16/03 A3039 RMK AO2 T01600034 TSNO
KJVY 131435Z AUTO 01006KT 10SM CLR 15/04 A3039 RMK AO2 T01530038 TSNO
KJVY 131415Z AUTO 00000KT 10SM CLR 15/05 A3039 RMK AO2 T01460046 TSNO
KJVY 131355Z AUTO 02004KT 10SM CLR 14/06 A3040 RMK AO2 T01350056 TSNO
KJVY 131335Z AUTO 01005KT 10SM CLR 12/06 A3040 RMK AO2 T01210055 TSNO
KJVY 131315Z AUTO 36004KT 10SM CLR 11/05 A3040 RMK AO2 T01100052 TSNO
KJVY 131255Z AUTO 36005KT 10SM CLR 10/05 A3039 RMK AO2 T01000048 TSNO
KJVY 131235Z AUTO 36005KT 10SM CLR 10/05 A3039 RMK AO2 T00950047 TSNO
KJVY 131215Z AUTO 35003KT 10SM CLR 09/05 A3039 RMK AO2 T00900051 PWINO TSNO
KJVY 131155Z AUTO 35005KT 10SM CLR 08/04 A3039 RMK AO2 T00780042 10078 20034 PWINO TSNO
KJVY 131135Z AUTO 36004KT 10SM CLR 07/04 A3038 RMK AO2 T00650043 PWINO TSNO
KJVY 131115Z AUTO 35003KT 10SM CLR 06/04 A3038 RMK AO2 T00550035 PWINO TSNO
KJVY 131055Z AUTO 36003KT 10SM CLR 05/04 A3037 RMK AO2 T00470035 PWINO TSNO
KJVY 131035Z AUTO 35004KT 10SM CLR 05/03 A3037 RMK AO2 T00470034 PWINO TSNO
KJVY 131015Z AUTO 00000KT 10SM CLR 05/03 A3036 RMK AO2 T00460031 PWINO TSNO
KJVY 130955Z AUTO 36003KT 10SM CLR 05/04 A3036 RMK AO2 T00510035 PWINO TSNO
KJVY 130935Z AUTO 36003KT 10SM CLR 05/03 A3036 RMK AO2 T00500033 PWINO TSNO
KJVY 130915Z AUTO 01003KT 10SM CLR 05/03 A3036 RMK AO2 T00540031 PWINO TSNO
KJVY 130855Z AUTO 36003KT 10SM CLR 05/03 A3035 RMK AO2 T00530033 PWINO TSNO
KJVY 130835Z AUTO 36004KT 10SM CLR 06/04 A3035 RMK AO2 T00550035 PWINO TSNO
KJVY 130815Z AUTO 36004KT 10SM CLR 06/04 A3035 RMK AO2 T00590037 PWINO TSNO
KJVY 130755Z AUTO 01003KT 10SM CLR 05/04 A3035 RMK AO2 T00520037 PWINO TSNO
KJVY 130735Z AUTO 36003KT 10SM CLR 06/04 A3035 RMK AO2 T00590038 PWINO TSNO
KJVY 130715Z AUTO 36003KT 10SM CLR 06/04 A3035 RMK AO2 T00600040 PWINO TSNO
KJVY 130655Z AUTO 00000KT 10SM CLR 06/04 A3035 RMK AO2 T00550038 401840046 PWINO TSNO
KJVY 130635Z AUTO 00000KT 10SM CLR 06/04 A3035 RMK AO2 T00630042 PWINO TSNO
KJVY 130615Z AUTO 36003KT 10SM CLR 06/04 A3036 RMK AO2 T00640042 TSNO
KJVY 130555Z AUTO 36004KT 10SM CLR 06/04 A3036 RMK AO2 T00610042 10165 20061 TSNO
KJVY 130535Z AUTO 36004KT 10SM CLR 07/05 A3036 RMK AO2 T00660045 TSNO
KJVY 130515Z AUTO 35004KT 10SM CLR 07/04 A3035 RMK AO2 T00660042 TSNO
KJVY 130455Z AUTO 36003KT 10SM CLR 06/05 A3035 RMK AO2 T00630045 TSNO
KJVY 130435Z AUTO 00000KT 10SM CLR 07/05 A3035 RMK AO2 T00700053 TSNO
KJVY 130415Z AUTO 01003KT 10SM CLR 07/05 A3035 RMK AO2 T00710047 TSNO
KJVY 130355Z AUTO 36004KT 10SM CLR 07/05 A3035 RMK AO2 T00660045 TSNO
KJVY 130335Z AUTO 00000KT 10SM CLR 07/05 A3035 RMK AO2 T00700051 TSNO
KJVY 130315Z AUTO 00000KT 10SM CLR 08/06 A3035 RMK AO2 T00770055 TSNO
KJVY 130255Z AUTO 00000KT 10SM CLR 08/05 A3035 RMK AO2 T00770050 TSNO
KJVY 130235Z AUTO 00000KT 10SM CLR 08/05 A3034 RMK AO2 T00810050 TSNO
KJVY 130215Z AUTO 00000KT 10SM CLR 09/05 A3034 RMK AO2 T00940050 TSNO
KJVY 130155Z AUTO 00000KT 10SM CLR 09/05 A3033 RMK AO2 T00920048 TSNO
KJVY 130135Z AUTO 00000KT 10SM CLR 11/04 A3033 RMK AO2 T01060035 TSNO
KJVY 130115Z AUTO 00000KT 10SM CLR 11/04 A3032 RMK AO2 T01130039 TSNO
KJVY 130055Z AUTO 00000KT 10SM CLR 14/01 A3031 RMK AO2 T01410012 TSNO
KJVY 130035Z AUTO 03004KT 10SM CLR 15/01 A3031 RMK AO2 T01510005 TSNO
KJVY 130015Z AUTO 00000KT 10SM CLR 16/01 A3030 RMK AO2 T01590005 TSNO
KJVY 122355Z AUTO 04004KT 10SM CLR 17/00 A3029 RMK AO2 T01661001 10184 20166 TSNO
KJVY 122335Z AUTO 04007KT 10SM CLR 17/00 A3029 RMK AO2 T01701003 TSNO
KJVY 122315Z AUTO 02005KT 10SM CLR 17/00 A3029 RMK AO2 T01720001 TSNO
KJVY 122255Z AUTO 04006KT 360V070 10SM CLR 18/00 A3029 RMK AO2 T01760003 TSNO
KJVY 122235Z AUTO 02007KT 10SM CLR 18/00 A3029 RMK AO2 T01780000 TSNO
KJVY 122215Z AUTO 04005KT 10SM CLR 18/00 A3029 RMK AO2 T01760001 TSNO
KJVY 122155Z AUTO 02011G14KT 10SM CLR 18/01 A3029 RMK AO2 T01820006 TSNO
KJVY 122135Z AUTO 36011KT 10SM CLR 18/01 A3030 RMK AO2 T01810005 TSNO
KJVY 122115Z AUTO 03009KT 10SM CLR 18/00 A3030 RMK AO2 T01800004 TSNO
KJVY 122055Z AUTO 02005G09KT 10SM CLR 18/00 A3031 RMK AO2 T01800001 TSNO
KJVY 122035Z AUTO 35007KT 10SM CLR 18/00 A3031 RMK AO2 T01800004 TSNO
KJVY 122015Z AUTO 36005G14KT 10SM CLR 18/01 A3032 RMK AO2 T01790006 TSNO
KJVY 121955Z AUTO 04008KT 020V080 10SM CLR 18/01 A3032 RMK AO2 T01810013 TSNO
KJVY 121935Z AUTO 06007G19KT 10SM CLR 18/01 A3033 RMK AO2 T01790008 TSNO
KJVY 121915Z AUTO 10007KT 10SM CLR 18/01 A3034 RMK AO2 T01780009 TSNO
KJVY 121855Z AUTO 04007KT 350V080 10SM CLR 18/01 A3034 RMK AO2 T01770013 TSNO
KJVY 121835Z AUTO 02008G14KT 10SM CLR 17/00 A3034 RMK AO2 T01680003 TSNO
KJVY 121815Z AUTO 36010G14KT 10SM CLR 17/01 A3034 RMK AO2 T01730010 TSNO
KJVY 121755Z AUTO 02005KT 10SM CLR 17/01 A3035 RMK AO2 T01670008 10170 20084 TSNO
KJVY 121735Z AUTO 01009KT 10SM CLR 17/01 A3035 RMK AO2 T01680013 TSNO
KJVY 121715Z AUTO 03008KT 010V070 10SM CLR 16/00 A3036 RMK AO2 T01620002 TSNO
KJVY 121655Z AUTO 10007G14KT 060V120 10SM CLR 16/00 A3036 RMK AO2 T01600002 TSNO
KJVY 121635Z AUTO 05008G14KT 10SM CLR 16/00 A3037 RMK AO2 T01570000 TSNO
KJVY 121615Z AUTO 06010G16KT 10SM CLR 15/M01 A3037 RMK AO2 T01511008 TSNO
KJVY 121555Z AUTO 02007KT 10SM CLR 15/01 A3037 RMK AO2 T01480007 TSNO
KJVY 121535Z AUTO 04006G17KT 10SM CLR 15/00 A3037 RMK AO2 T01480003 TSNO
KJVY 121515Z AUTO 05010G16KT 040V100 10SM CLR 14/00 A3037 RMK AO2 T01401002 TSNO
KJVY 121455Z AUTO 06009KT 020V100 10SM CLR 14/00 A3037 RMK AO2 T01390000 TSNO
KJVY 121435Z AUTO 07008G14KT 040V100 10SM CLR 14/00 A3037 RMK AO2 T01351003 TSNO
KJVY 121415Z AUTO 08009G17KT 10SM CLR 13/00 A3038 RMK AO2 T01301001 TSNO
KJVY 121355Z AUTO 06006KT 030V090 10SM CLR 13/01 A3038 RMK AO2 T01260008 TSNO